createdAt,value
2019-02-27T00:01:34.722Z,66.90
2019-02-27T00:04:02.428Z,67.30
2019-02-27T00:06:30.503Z,67.20
2019-02-27T00:09:00.501Z,67.10
2019-02-27T00:11:27.083Z,68.10
2019-02-27T00:13:57.640Z,67.50
2019-02-27T00:16:23.591Z,69.60
2019-02-27T00:18:50.886Z,71.10
2019-02-27T00:21:18.186Z,72.00
2019-02-27T00:23:45.492Z,71.40
2019-02-27T00:26:12.893Z,70.30
2019-02-27T00:28:40.230Z,69.80
2019-02-27T00:31:11.225Z,69.70
2019-02-27T00:33:37.438Z,69.10
2019-02-27T00:36:04.740Z,68.80
2019-02-27T00:38:32.067Z,68.30
2019-02-27T00:40:59.450Z,68.40
2019-02-27T00:43:28.393Z,68.10
2019-02-27T00:45:56.020Z,68.20
2019-02-27T00:48:25.973Z,68.80
2019-02-27T00:50:52.909Z,69.10
2019-02-27T00:53:21.996Z,68.90
2019-02-27T00:55:49.401Z,68.90
2019-02-27T00:58:16.746Z,68.80
2019-02-27T01:00:44.123Z,68.70
2019-02-27T01:03:11.447Z,68.80
2019-02-27T01:05:40.943Z,68.90
2019-02-27T01:08:08.082Z,69.00
2019-02-27T01:10:35.361Z,68.80
2019-02-27T01:13:03.223Z,68.80
2019-02-27T01:15:30.578Z,68.40
2019-02-27T01:17:58.178Z,68.50
2019-02-27T01:20:25.561Z,68.50
2019-02-27T01:22:52.942Z,68.40
2019-02-27T01:25:22.910Z,68.40
2019-02-27T01:27:49.535Z,68.40
2019-02-27T01:30:17.080Z,68.50
2019-02-27T01:32:44.814Z,68.60
2019-02-27T01:35:17.474Z,69.10
2019-02-27T01:37:41.950Z,69.10
2019-02-27T01:40:10.642Z,69.00
2019-02-27T01:42:37.933Z,68.60
2019-02-27T01:45:07.122Z,69.00
2019-02-27T01:47:36.129Z,69.20
2019-02-27T01:50:27.234Z,69.30
2019-02-27T01:52:54.932Z,69.40
2019-02-27T01:55:22.652Z,69.50
2019-02-27T01:57:50.192Z,69.70
2019-02-27T02:00:17.528Z,70.20
2019-02-27T02:02:44.851Z,70.30
2019-02-27T02:05:12.264Z,70.60
2019-02-27T02:07:40.307Z,70.50
2019-02-27T02:10:08.303Z,70.50
2019-02-27T02:12:35.720Z,70.50
2019-02-27T02:15:29.506Z,70.40
2019-02-27T02:18:45.726Z,70.40
2019-02-27T02:22:06.101Z,70.30
2019-02-27T02:24:58.950Z,70.10
2019-02-27T02:27:58.106Z,70.60
2019-02-27T02:30:54.740Z,70.90
2019-02-27T02:33:32.394Z,71.60
2019-02-27T02:36:53.863Z,73.70
2019-02-27T02:39:47.134Z,72.60
2019-02-27T02:42:54.925Z,73.40
2019-02-27T02:45:32.848Z,72.30
2019-02-27T02:48:42.021Z,72.00
2019-02-27T02:51:49.787Z,72.20
2019-02-27T02:54:42.076Z,72.00
2019-02-27T02:57:38.169Z,71.80
2019-02-27T03:00:16.264Z,71.40
2019-02-27T03:03:00.791Z,71.80
2019-02-27T03:06:04.217Z,71.40
2019-02-27T03:08:57.020Z,71.30
2019-02-27T03:12:33.629Z,71.20
2019-02-27T03:15:46.817Z,71.40
2019-02-27T03:18:53.226Z,71.50
2019-02-27T03:22:03.736Z,71.70
2019-02-27T03:24:53.587Z,71.60
2019-02-27T03:27:57.310Z,71.60
2019-02-27T03:31:05.131Z,71.40
2019-02-27T03:34:32.240Z,71.50
2019-02-27T03:37:23.915Z,71.20
2019-02-27T03:40:35.981Z,71.20
2019-02-27T03:44:03.500Z,71.50
2019-02-27T03:46:42.001Z,71.40
2019-02-27T03:49:40.785Z,71.80
2019-02-27T03:52:53.598Z,72.00
2019-02-27T03:56:09.737Z,72.30
2019-02-27T03:59:14.167Z,72.70
2019-02-27T04:01:58.788Z,73.10
2019-02-27T04:04:55.227Z,72.20
2019-02-27T04:07:45.919Z,72.50
2019-02-27T04:10:13.263Z,72.70
2019-02-27T04:12:40.762Z,72.20
2019-02-27T04:15:08.264Z,72.30
2019-02-27T04:17:34.756Z,72.30
2019-02-27T04:20:02.156Z,72.30
2019-02-27T04:22:29.580Z,72.10
2019-02-27T04:24:57.671Z,72.10
2019-02-27T04:27:25.338Z,71.90
2019-02-27T04:29:52.674Z,71.70
2019-02-27T04:32:20.026Z,71.50
2019-02-27T04:34:47.424Z,71.80
2019-02-27T04:37:14.716Z,71.80
2019-02-27T04:39:42.030Z,72.40
2019-02-27T04:42:09.405Z,72.50
2019-02-27T04:44:38.893Z,72.50
2019-02-27T04:47:06.724Z,71.90
2019-02-27T04:49:37.448Z,71.90
2019-02-27T04:52:03.186Z,72.00
2019-02-27T04:54:30.490Z,72.20
2019-02-27T04:56:58.267Z,72.10
2019-02-27T04:59:25.908Z,72.10
2019-02-27T05:01:53.243Z,72.40
2019-02-27T05:04:20.626Z,72.00
2019-02-27T05:06:48.287Z,71.60
2019-02-27T05:09:15.647Z,71.80
2019-02-27T05:11:47.543Z,71.70
2019-02-27T05:14:12.148Z,71.80
2019-02-27T05:16:39.509Z,71.70
2019-02-27T05:19:06.796Z,71.40
2019-02-27T05:21:34.185Z,71.50
2019-02-27T05:24:01.453Z,71.40
2019-02-27T05:26:28.882Z,71.90
2019-02-27T05:28:56.265Z,72.00
2019-02-27T05:31:23.568Z,71.80
2019-02-27T05:33:50.963Z,72.30
2019-02-27T05:36:18.264Z,71.10
2019-02-27T05:38:45.695Z,71.50
2019-02-27T05:41:13.339Z,71.40
2019-02-27T05:43:40.641Z,71.10
2019-02-27T05:46:07.984Z,71.70
2019-02-27T05:48:35.636Z,72.70
2019-02-27T05:51:04.957Z,73.20
2019-02-27T05:53:32.207Z,73.20
2019-02-27T05:55:59.590Z,72.90
2019-02-27T05:58:26.917Z,73.00
2019-02-27T06:00:54.243Z,73.40
2019-02-27T06:03:21.568Z,73.30
2019-02-27T06:05:49.782Z,73.20
2019-02-27T06:08:17.315Z,73.50
2019-02-27T06:10:44.685Z,73.20
2019-02-27T06:13:14.207Z,73.30
2019-02-27T06:15:41.302Z,73.10
2019-02-27T06:18:08.585Z,73.00
2019-02-27T06:20:36.023Z,72.80
2019-02-27T06:23:04.486Z,73.00
2019-02-27T06:25:32.547Z,73.70
2019-02-27T06:27:59.951Z,73.60
2019-02-27T06:30:27.918Z,73.50
2019-02-27T06:32:56.401Z,73.20
2019-02-27T06:35:23.751Z,73.40
2019-02-27T06:37:51.450Z,73.40
2019-02-27T06:40:19.017Z,73.30
2019-02-27T06:42:46.421Z,74.20
2019-02-27T06:45:14.891Z,73.90
2019-02-27T06:47:42.271Z,74.30
2019-02-27T06:50:11.395Z,74.40
2019-02-27T06:52:40.185Z,73.50
2019-02-27T06:55:07.869Z,73.20
2019-02-27T06:57:35.208Z,73.20
2019-02-27T07:00:03.389Z,72.90
2019-02-27T07:02:31.147Z,72.40
2019-02-27T07:04:58.463Z,72.40
2019-02-27T07:07:28.744Z,73.00
2019-02-27T07:09:55.901Z,73.10
2019-02-27T07:12:23.307Z,73.40
2019-02-27T07:14:50.697Z,74.10
2019-02-27T07:17:18.202Z,73.30
2019-02-27T07:19:47.429Z,73.60
2019-02-27T07:22:14.825Z,74.10
2019-02-27T07:24:42.469Z,73.30
2019-02-27T07:27:09.840Z,73.60
2019-02-27T07:29:37.133Z,74.20
2019-02-27T07:32:04.568Z,74.30
2019-02-27T07:34:31.961Z,73.90
2019-02-27T07:36:59.361Z,74.30
2019-02-27T07:39:26.700Z,75.00
2019-02-27T07:41:54.335Z,74.20
2019-02-27T07:44:21.651Z,73.50
2019-02-27T07:46:49.070Z,73.20
2019-02-27T07:49:16.739Z,72.80
2019-02-27T07:51:44.196Z,73.40
2019-02-27T07:54:11.730Z,73.50
2019-02-27T07:56:39.277Z,73.80
2019-02-27T07:59:06.703Z,73.30
2019-02-27T08:01:43.260Z,72.40
2019-02-27T08:04:03.565Z,72.80
2019-02-27T08:06:30.975Z,73.20
2019-02-27T08:08:58.356Z,72.40
2019-02-27T08:11:26.491Z,73.10
2019-02-27T08:13:53.916Z,72.90
2019-02-27T08:16:22.601Z,72.50
2019-02-27T08:18:50.096Z,72.00
2019-02-27T08:21:17.542Z,71.50
2019-02-27T08:23:45.073Z,70.80
2019-02-27T08:26:12.509Z,70.10
2019-02-27T08:28:39.923Z,69.50
2019-02-27T08:31:07.298Z,70.10
2019-02-27T08:33:35.133Z,70.20
2019-02-27T08:36:02.562Z,70.10
2019-02-27T08:38:30.368Z,70.00
2019-02-27T08:40:58.502Z,69.80
2019-02-27T08:43:25.947Z,68.90
2019-02-27T08:45:53.329Z,69.50
2019-02-27T08:48:20.652Z,68.40
2019-02-27T08:50:48.049Z,67.30
2019-02-27T08:53:15.372Z,68.40
2019-02-27T08:55:42.774Z,68.20
2019-02-27T08:58:10.093Z,67.50
2019-02-27T09:00:37.846Z,67.30
2019-02-27T09:03:05.176Z,68.30
2019-02-27T09:05:32.552Z,67.40
2019-02-27T09:08:00.344Z,67.10
2019-02-27T09:10:30.515Z,65.70
2019-02-27T09:13:04.796Z,64.80
2019-02-27T09:15:26.095Z,64.40
2019-02-27T09:17:53.493Z,64.40
2019-02-27T09:20:20.917Z,64.70
2019-02-27T09:22:48.436Z,63.60
2019-02-27T09:25:16.121Z,64.20
2019-02-27T09:27:43.554Z,61.90
2019-02-27T09:30:12.625Z,60.20
2019-02-27T09:32:40.008Z,60.50
2019-02-27T09:35:07.928Z,58.90
2019-02-27T09:37:35.366Z,58.60
2019-02-27T09:40:05.762Z,56.60
2019-02-27T09:42:32.643Z,55.90
2019-02-27T09:45:00.153Z,55.60
2019-02-27T09:47:27.910Z,52.00
2019-02-27T09:49:55.407Z,50.60
2019-02-27T09:52:23.765Z,48.80
2019-02-27T09:54:51.649Z,46.20
2019-02-27T09:57:18.952Z,45.20
2019-02-27T09:59:46.375Z,43.40
2019-02-27T10:02:13.686Z,40.70
2019-02-27T10:04:41.008Z,40.50
2019-02-27T10:07:08.484Z,39.60
2019-02-27T10:09:35.880Z,38.50
2019-02-27T10:12:03.210Z,36.70
2019-02-27T10:14:30.602Z,34.20
2019-02-27T10:16:57.930Z,36.50
2019-02-27T10:19:26.855Z,33.90
2019-02-27T10:21:54.568Z,34.70
2019-02-27T10:24:22.311Z,33.50
2019-02-27T10:26:49.713Z,31.90
2019-02-27T10:29:18.942Z,31.60
2019-02-27T10:31:46.594Z,32.70
2019-02-27T10:34:14.559Z,31.10
2019-02-27T10:36:43.163Z,29.00
2019-02-27T10:39:10.718Z,28.10
2019-02-27T10:41:38.114Z,25.50
2019-02-27T10:44:05.521Z,25.30
2019-02-27T10:46:32.958Z,23.50
2019-02-27T10:49:00.314Z,22.20
2019-02-27T10:51:27.708Z,22.20
2019-02-27T10:53:55.160Z,21.40
2019-02-27T10:56:24.254Z,21.30
2019-02-27T10:58:51.761Z,20.80
2019-02-27T11:01:19.189Z,19.20
2019-02-27T11:03:46.628Z,19.60
2019-02-27T11:06:14.080Z,18.20
2019-02-27T11:08:41.523Z,17.50
2019-02-27T11:11:09.005Z,17.10
2019-02-27T11:13:36.412Z,17.20
2019-02-27T11:16:03.809Z,17.60
2019-02-27T11:18:31.211Z,17.50
2019-02-27T11:20:59.298Z,18.20
2019-02-27T11:23:26.857Z,17.40
2019-02-27T11:25:56.949Z,17.40
2019-02-27T11:28:23.532Z,15.80
2019-02-27T11:30:51.143Z,16.10
2019-02-27T11:33:25.504Z,16.70
2019-02-27T11:35:48.229Z,16.80
2019-02-27T11:38:15.798Z,16.60
2019-02-27T11:40:43.104Z,16.20
2019-02-27T11:43:10.402Z,15.90
2019-02-27T11:45:37.727Z,15.50
2019-02-27T11:48:05.087Z,15.10
2019-02-27T11:50:32.799Z,15.10
2019-02-27T11:53:02.782Z,13.50
2019-02-27T11:55:29.445Z,13.10
2019-02-27T11:57:56.905Z,14.20
2019-02-27T12:00:25.842Z,14.90
2019-02-27T12:02:53.136Z,14.20
2019-02-27T12:05:20.492Z,13.60
2019-02-27T12:07:50.660Z,13.90
2019-02-27T12:10:18.793Z,14.70
2019-02-27T12:12:46.139Z,14.50
2019-02-27T12:15:14.520Z,14.20
2019-02-27T12:17:42.033Z,15.30
2019-02-27T12:20:09.511Z,15.10
2019-02-27T12:22:36.955Z,15.90
2019-02-27T12:25:05.070Z,15.30
2019-02-27T12:27:48.612Z,16.70
2019-02-27T12:30:02.860Z,17.20
2019-02-27T12:32:30.906Z,17.20
2019-02-27T12:34:58.334Z,17.90
2019-02-27T12:37:28.408Z,18.20
2019-02-27T12:39:55.201Z,18.60
2019-02-27T12:42:22.675Z,18.40
2019-02-27T12:44:53.896Z,19.70
2019-02-27T12:47:19.663Z,20.90
2019-02-27T12:49:47.135Z,21.80
2019-02-27T12:52:14.599Z,23.00
2019-02-27T12:54:42.465Z,20.80
2019-02-27T12:57:09.889Z,21.60
2019-02-27T12:59:37.210Z,23.00
2019-02-27T13:02:08.291Z,24.50
2019-02-27T13:04:33.933Z,24.90
2019-02-27T13:07:01.331Z,24.80
2019-02-27T13:09:28.819Z,25.30
2019-02-27T13:11:56.293Z,25.20
2019-02-27T13:14:23.776Z,24.40
2019-02-27T13:16:51.173Z,24.90
2019-02-27T13:19:18.536Z,23.70
2019-02-27T13:21:45.967Z,23.90
2019-02-27T13:24:15.341Z,23.30
2019-02-27T13:26:42.798Z,24.00
2019-02-27T13:29:10.249Z,22.80
2019-02-27T13:31:37.706Z,22.70
2019-02-27T13:34:05.124Z,22.40
2019-02-27T13:36:34.167Z,21.20
2019-02-27T13:39:02.143Z,21.00
2019-02-27T13:41:29.593Z,21.30
2019-02-27T13:43:58.275Z,21.00
2019-02-27T13:46:26.220Z,20.90
2019-02-27T13:48:53.673Z,21.10
2019-02-27T13:51:21.120Z,20.60
2019-02-27T13:53:48.561Z,20.20
2019-02-27T13:56:16.226Z,19.30
2019-02-27T13:58:43.692Z,20.00
2019-02-27T14:01:12.108Z,20.70
2019-02-27T14:03:39.734Z,20.70
2019-02-27T14:06:09.311Z,21.10
2019-02-27T14:08:36.430Z,21.40
2019-02-27T14:11:03.930Z,21.40
2019-02-27T14:13:31.358Z,20.60
2019-02-27T14:16:00.794Z,20.30
2019-02-27T14:18:28.025Z,19.60
2019-02-27T14:20:58.945Z,19.30
2019-02-27T14:23:27.999Z,19.60
2019-02-27T14:25:55.632Z,18.90
2019-02-27T14:28:23.071Z,18.90
2019-02-27T14:30:50.524Z,18.40
2019-02-27T14:33:19.386Z,18.90
2019-02-27T14:35:47.611Z,19.50
2019-02-27T14:38:16.513Z,20.10
2019-02-27T14:40:45.927Z,21.00
2019-02-27T14:43:13.469Z,21.60
2019-02-27T14:45:41.109Z,22.50
2019-02-27T14:48:08.529Z,22.10
2019-02-27T14:50:35.894Z,22.00
2019-02-27T14:53:03.260Z,21.60
2019-02-27T14:55:30.633Z,20.50
2019-02-27T14:57:58.352Z,19.60
2019-02-27T15:00:27.956Z,20.10
2019-02-27T15:02:55.980Z,19.60
2019-02-27T15:05:24.079Z,19.50
2019-02-27T15:07:53.655Z,19.10
2019-02-27T15:10:20.931Z,20.00
2019-02-27T15:12:53.822Z,20.50
2019-02-27T15:15:19.506Z,21.10
2019-02-27T15:17:47.203Z,21.70
2019-02-27T15:20:15.327Z,22.80
2019-02-27T15:22:45.295Z,23.90
2019-02-27T15:25:14.075Z,24.50
2019-02-27T15:27:41.793Z,25.10
2019-02-27T15:30:13.146Z,26.40
2019-02-27T15:32:41.154Z,26.50
2019-02-27T15:35:08.956Z,27.50
2019-02-27T15:37:37.491Z,27.00
2019-02-27T15:40:06.312Z,27.80
2019-02-27T15:42:34.002Z,28.00
2019-02-27T15:45:01.524Z,28.40
2019-02-27T15:47:30.318Z,29.30
2019-02-27T15:49:58.703Z,29.70
2019-02-27T15:52:26.136Z,30.10
2019-02-27T15:54:55.616Z,31.00
2019-02-27T15:57:25.896Z,31.00
2019-02-27T15:59:53.492Z,32.20
2019-02-27T16:02:21.027Z,32.00
2019-02-27T16:04:48.420Z,32.40
2019-02-27T16:07:15.932Z,31.60
2019-02-27T16:09:43.431Z,33.20
2019-02-27T16:12:10.861Z,33.50
2019-02-27T16:14:40.246Z,33.90
2019-02-27T16:17:07.611Z,33.60
2019-02-27T16:19:34.963Z,35.40
2019-02-27T16:22:02.441Z,35.40
2019-02-27T16:24:29.902Z,36.40
2019-02-27T16:26:57.970Z,36.30
2019-02-27T16:29:26.492Z,36.30
2019-02-27T16:31:54.099Z,36.20
2019-02-27T16:34:21.542Z,37.10
2019-02-27T16:36:48.915Z,37.10
2019-02-27T16:39:18.050Z,37.50
2019-02-27T16:41:45.466Z,37.50
2019-02-27T16:44:12.862Z,37.50
2019-02-27T16:46:44.771Z,38.40
2019-02-27T16:49:10.813Z,38.40
2019-02-27T16:51:38.325Z,39.60
2019-02-27T16:54:05.781Z,39.90
2019-02-27T16:56:33.221Z,41.00
2019-02-27T16:59:00.660Z,40.80
2019-02-27T17:01:29.526Z,41.30
2019-02-27T17:04:00.339Z,41.10
2019-02-27T17:06:26.682Z,40.80
2019-02-27T17:08:54.207Z,41.50
2019-02-27T17:11:21.711Z,42.20
2019-02-27T17:13:49.452Z,42.30
2019-02-27T17:16:17.825Z,42.60
2019-02-27T17:18:45.286Z,43.10
2019-02-27T17:21:14.022Z,43.70
2019-02-27T17:23:45.361Z,43.30
2019-02-27T17:26:10.908Z,43.50
2019-02-27T17:28:38.344Z,44.30
2019-02-27T17:31:11.621Z,44.40
2019-02-27T17:33:37.922Z,44.60
2019-02-27T17:36:04.710Z,44.50
2019-02-27T17:38:32.477Z,45.00
2019-02-27T17:41:00.323Z,45.20
2019-02-27T17:43:29.521Z,45.10
2019-02-27T17:45:57.496Z,45.60
2019-02-27T17:48:24.986Z,45.70
2019-02-27T17:50:52.479Z,46.50
2019-02-27T17:53:20.464Z,46.80
2019-02-27T17:55:49.213Z,47.40
2019-02-27T17:58:17.078Z,47.30
2019-02-27T18:00:50.077Z,47.30
2019-02-27T18:03:14.291Z,48.30
2019-02-27T18:05:42.257Z,48.20
2019-02-27T18:08:10.480Z,48.20
2019-02-27T18:10:38.348Z,48.50
2019-02-27T18:13:05.975Z,48.70
2019-02-27T18:15:34.088Z,48.90
2019-02-27T18:18:01.543Z,49.20
2019-02-27T18:20:29.007Z,49.30
2019-02-27T18:22:56.523Z,49.20
2019-02-27T18:25:24.236Z,49.60
2019-02-27T18:27:51.907Z,49.90
2019-02-27T18:30:19.858Z,49.90
2019-02-27T18:32:47.391Z,50.30
2019-02-27T18:35:15.097Z,50.70
2019-02-27T18:37:42.537Z,51.00
2019-02-27T18:40:11.806Z,51.00
2019-02-27T18:42:39.200Z,51.00
2019-02-27T18:45:08.180Z,51.20
2019-02-27T18:47:35.889Z,51.30
2019-02-27T18:50:03.448Z,51.90
2019-02-27T18:52:31.255Z,52.10
2019-02-27T18:54:58.935Z,52.10
2019-02-27T18:57:26.714Z,52.00
2019-02-27T18:59:54.206Z,52.10
2019-02-27T19:02:21.700Z,52.20
2019-02-27T19:04:49.153Z,52.40
2019-02-27T19:07:17.228Z,52.70
2019-02-27T19:09:47.034Z,52.60
2019-02-27T19:12:14.704Z,52.70
2019-02-27T19:14:42.132Z,53.20
2019-02-27T19:17:09.731Z,53.20
2019-02-27T19:19:37.174Z,53.10
2019-02-27T19:22:07.581Z,53.30
2019-02-27T19:24:34.556Z,53.30
2019-02-27T19:27:02.207Z,53.60
2019-02-27T19:29:31.945Z,53.60
2019-02-27T19:31:59.170Z,53.70
2019-02-27T19:34:26.699Z,54.10
2019-02-27T19:36:54.773Z,53.80
2019-02-27T19:39:22.585Z,53.90
2019-02-27T19:41:50.209Z,53.70
2019-02-27T19:44:17.697Z,54.00
2019-02-27T19:46:47.422Z,54.20
2019-02-27T19:49:14.722Z,54.20
2019-02-27T19:51:42.323Z,54.50
2019-02-27T19:54:11.479Z,55.00
2019-02-27T19:56:39.485Z,54.90
2019-02-27T19:59:07.239Z,54.90
2019-02-27T20:01:34.823Z,55.70
2019-02-27T20:04:02.337Z,55.50
2019-02-27T20:06:29.983Z,55.50
2019-02-27T20:08:57.439Z,55.80
2019-02-27T20:11:26.415Z,55.80
2019-02-27T20:13:54.053Z,56.20
2019-02-27T20:16:21.879Z,55.90
2019-02-27T20:18:54.731Z,56.00
2019-02-27T20:21:18.590Z,56.40
2019-02-27T20:23:46.086Z,56.40
2019-02-27T20:26:14.242Z,55.90
2019-02-27T20:28:42.173Z,55.70
2019-02-27T20:31:09.705Z,56.60
2019-02-27T20:33:38.011Z,57.10
2019-02-27T20:36:05.737Z,57.60
2019-02-27T20:38:33.604Z,57.70
2019-02-27T20:41:01.047Z,57.70
2019-02-27T20:43:29.389Z,57.70
2019-02-27T20:45:58.545Z,57.80
2019-02-27T20:48:26.089Z,57.90
2019-02-27T20:50:55.243Z,58.00
2019-02-27T20:53:23.080Z,58.40
2019-02-27T20:55:50.549Z,58.50
2019-02-27T20:58:18.465Z,58.30
2019-02-27T21:00:45.902Z,57.90
2019-02-27T21:03:13.780Z,58.80
2019-02-27T21:05:41.976Z,58.60
2019-02-27T21:08:09.456Z,58.50
2019-02-27T21:10:36.978Z,58.80
2019-02-27T21:13:04.454Z,59.00
2019-02-27T21:15:33.472Z,59.10
2019-02-27T21:18:01.280Z,59.30
2019-02-27T21:20:28.773Z,59.90
2019-02-27T21:22:56.231Z,59.70
2019-02-27T21:25:23.888Z,59.40
2019-02-27T21:27:52.488Z,59.30
2019-02-27T21:30:20.036Z,59.20
2019-02-27T21:32:47.482Z,59.30
2019-02-27T21:35:14.933Z,59.20
2019-02-27T21:37:45.499Z,59.10
2019-02-27T21:40:12.396Z,59.30
2019-02-27T21:42:39.834Z,59.40
2019-02-27T21:45:09.823Z,59.80
2019-02-27T21:47:37.315Z,59.50
2019-02-27T21:50:07.005Z,59.60
2019-02-27T21:52:34.632Z,59.90
2019-02-27T21:55:02.106Z,59.80
2019-02-27T21:57:29.938Z,60.10
2019-02-27T21:59:57.326Z,60.30
2019-02-27T22:02:27.283Z,60.60
2019-02-27T22:04:54.065Z,59.80
2019-02-27T22:07:21.479Z,60.20
2019-02-27T22:09:48.841Z,60.00
2019-02-27T22:12:16.182Z,59.10
2019-02-27T22:14:43.612Z,59.30
2019-02-27T22:17:10.998Z,59.20
2019-02-27T22:19:38.298Z,59.20
2019-02-27T22:22:08.006Z,59.60
2019-02-27T22:24:34.942Z,60.30
2019-02-27T22:27:02.354Z,61.40
2019-02-27T22:29:32.521Z,61.20
2019-02-27T22:31:59.915Z,62.20
2019-02-27T22:34:28.032Z,64.20
2019-02-27T22:36:58.306Z,64.90
2019-02-27T22:39:25.683Z,64.50
2019-02-27T22:41:53.131Z,64.70
2019-02-27T22:44:20.668Z,65.10
2019-02-27T22:46:48.495Z,65.00
2019-02-27T22:49:16.176Z,64.90
2019-02-27T22:51:45.219Z,65.20
2019-02-27T22:54:12.837Z,65.60
2019-02-27T22:56:40.357Z,65.80
2019-02-27T22:59:07.831Z,66.00
2019-02-27T23:01:43.053Z,65.50
2019-02-27T23:04:10.500Z,65.70
2019-02-27T23:06:38.698Z,66.20
2019-02-27T23:09:09.634Z,65.90
2019-02-27T23:11:37.449Z,65.50
2019-02-27T23:14:05.871Z,64.80
2019-02-27T23:16:33.322Z,65.60
2019-02-27T23:19:00.961Z,66.40
2019-02-27T23:21:28.271Z,66.70
2019-02-27T23:23:55.679Z,67.30
2019-02-27T23:26:23.080Z,66.30
2019-02-27T23:28:50.478Z,66.20
2019-02-27T23:31:22.247Z,66.00
2019-02-27T23:33:47.022Z,66.20
2019-02-27T23:36:14.459Z,65.30
2019-02-27T23:38:41.895Z,65.00
2019-02-27T23:41:09.312Z,65.00
2019-02-27T23:43:36.711Z,64.80
2019-02-27T23:46:04.168Z,64.80
2019-02-27T23:48:35.813Z,65.00
2019-02-27T23:51:00.748Z,65.50
2019-02-27T23:53:28.167Z,65.90
2019-02-27T23:55:55.565Z,66.90
2019-02-27T23:58:22.912Z,68.20
